Time;durP1;ratioP1;P1;durP2;ratioP2;P2;SDS_P1;SDS_P2;PMS_P1;PMS_P2;Temp;Humidity;BMP_temperature;BMP_pressure;BME280_temperature;BME280_humidity;BME280_pressure;Samples;Min_cycle;Max_cycle;Signal;HPM_P1;HPM_P2
2021/12/30 00:00:34;;;;;;;37.67;7.07;;;8.30;99.90;;;;;;5128186;27;20079;-84
2021/12/30 00:02:59;;;;;;;42.00;7.85;;;8.40;99.90;;;;;;5112374;28;20039;-85
2021/12/30 00:05:25;;;;;;;40.83;9.10;;;8.30;99.90;;;;;;5109902;28;20049;-86
2021/12/30 00:07:51;;;;;;;65.50;9.90;;;8.30;99.90;;;;;;5110191;28;20401;-85
2021/12/30 00:10:17;;;;;;;66.53;11.73;;;8.30;99.90;;;;;;5109850;28;20043;-86
2021/12/30 00:12:43;;;;;;;42.75;8.50;;;8.20;99.90;;;;;;5125783;27;20449;-84
2021/12/30 00:15:11;;;;;;;51.33;9.25;;;8.20;99.90;;;;;;5126490;27;20070;-84
2021/12/30 00:17:37;;;;;;;52.55;9.75;;;8.30;99.90;;;;;;5092432;28;20050;-84
2021/12/30 00:20:07;;;;;;;55.03;9.27;;;8.30;99.90;;;;;;5110383;28;20556;-85
2021/12/30 00:22:33;;;;;;;47.15;9.32;;;8.30;99.90;;;;;;5109599;28;20120;-85
2021/12/30 00:24:59;;;;;;;41.28;9.25;;;8.20;99.90;;;;;;5111557;28;20515;-84
2021/12/30 00:27:25;;;;;;;44.03;10.65;;;8.30;99.90;;;;;;5127022;28;20039;-84
2021/12/30 00:29:51;;;;;;;58.45;11.77;;;8.20;99.90;;;;;;5117570;28;20112;-86
2021/12/30 00:32:16;;;;;;;59.83;10.63;;;8.20;99.90;;;;;;5124395;28;20043;-84
2021/12/30 00:34:42;;;;;;;49.45;12.02;;;8.20;99.90;;;;;;5125166;28;20035;-84
2021/12/30 00:37:07;;;;;;;48.03;10.02;;;8.20;99.90;;;;;;5104314;28;20039;-84
2021/12/30 00:39:34;;;;;;;50.08;11.18;;;8.10;99.90;;;;;;5124516;28;20031;-85
2021/12/30 00:42:00;;;;;;;62.70;11.73;;;8.10;99.90;;;;;;5081036;28;20040;-85
2021/12/30 00:44:25;;;;;;;55.35;11.57;;;8.10;99.90;;;;;;5114053;28;20058;-84
2021/12/30 00:46:51;;;;;;;56.53;10.73;;;8.10;99.90;;;;;;5132664;28;20035;-85
2021/12/30 00:49:17;;;;;;;56.30;12.20;;;8.00;99.90;;;;;;5121941;28;20051;-87
2021/12/30 00:51:43;;;;;;;51.65;11.02;;;8.10;99.90;;;;;;5100786;28;20474;-81
2021/12/30 00:54:09;;;;;;;54.03;11.70;;;8.10;99.90;;;;;;5095484;28;20050;-85
2021/12/30 00:56:35;;;;;;;55.15;11.70;;;8.10;99.90;;;;;;5094533;28;20091;-86
2021/12/30 00:59:00;;;;;;;45.15;9.05;;;8.00;99.90;;;;;;5124650;28;20035;-85
2021/12/30 01:01:26;;;;;;;51.55;11.38;;;8.00;99.90;;;;;;5082473;28;20036;-86
2021/12/30 01:03:52;;;;;;;50.35;12.38;;;7.90;99.90;;;;;;5105587;27;20054;-85
2021/12/30 01:06:18;;;;;;;49.33;10.75;;;7.80;99.90;;;;;;5130968;27;20039;-84
2021/12/30 01:08:43;;;;;;;49.55;9.18;;;7.90;99.90;;;;;;5107958;28;20044;-82
2021/12/30 01:11:10;;;;;;;61.08;11.85;;;7.80;99.90;;;;;;5116526;27;20051;-86
2021/12/30 01:13:43;;;;;;;59.78;10.95;;;7.80;99.90;;;;;;5117108;28;20039;-85
2021/12/30 01:16:22;;;;;;;49.70;9.95;;;7.80;99.90;;;;;;5080408;28;20055;-85
2021/12/30 01:21:20;;;;;;;49.42;9.80;;;7.70;99.90;;;;;;5096907;28;20502;-85
2021/12/30 01:23:45;;;;;;;44.83;6.82;;;7.70;99.90;;;;;;5115647;27;20531;-87
2021/12/30 01:26:11;;;;;;;48.72;7.90;;;7.70;99.90;;;;;;5119123;27;20051;-85
2021/12/30 01:28:38;;;;;;;38.88;9.82;;;7.70;99.90;;;;;;5115570;27;20035;-87
2021/12/30 01:31:04;;;;;;;33.17;7.03;;;7.60;99.90;;;;;;5113850;27;20460;-86
2021/12/30 01:33:30;;;;;;;59.58;12.68;;;7.70;99.90;;;;;;5114151;27;20039;-86
2021/12/30 01:35:56;;;;;;;49.90;11.55;;;7.60;99.90;;;;;;5117872;27;20131;-85
2021/12/30 01:38:21;;;;;;;37.65;9.55;;;7.60;99.90;;;;;;5112239;27;20039;-85
2021/12/30 01:40:49;;;;;;;56.08;9.73;;;7.50;99.90;;;;;;5123796;27;20032;-85
2021/12/30 01:43:15;;;;;;;58.03;12.25;;;7.40;99.90;;;;;;5096808;28;20509;-75
2021/12/30 01:45:42;;;;;;;52.85;10.23;;;7.50;99.90;;;;;;5117482;27;20044;-85
2021/12/30 01:48:10;;;;;;;39.67;9.18;;;7.50;99.90;;;;;;5115315;28;20401;-85
2021/12/30 01:50:36;;;;;;;53.45;7.65;;;7.50;99.90;;;;;;5116860;27;20086;-85
2021/12/30 01:53:03;;;;;;;43.88;9.52;;;7.50;99.90;;;;;;5117180;27;20040;-82
2021/12/30 01:55:31;;;;;;;50.83;9.35;;;7.50;99.90;;;;;;5094332;27;20441;-85
2021/12/30 01:57:56;;;;;;;48.40;9.52;;;7.50;99.90;;;;;;5113780;27;20580;-86
2021/12/30 02:00:24;;;;;;;51.05;11.23;;;7.50;99.90;;;;;;5094981;28;20114;-87
2021/12/30 02:02:50;;;;;;;60.25;9.88;;;7.40;99.90;;;;;;5098729;28;20088;-86
2021/12/30 02:05:16;;;;;;;49.70;7.63;;;7.50;99.90;;;;;;5113557;27;20043;-86
2021/12/30 02:07:42;;;;;;;53.33;8.52;;;7.50;99.90;;;;;;5119373;27;20082;-85
2021/12/30 02:10:10;;;;;;;49.78;10.27;;;7.40;99.90;;;;;;5113150;27;20078;-87
2021/12/30 02:12:37;;;;;;;45.05;10.57;;;7.40;99.90;;;;;;5124783;27;20489;-86
2021/12/30 02:15:06;;;;;;;37.00;7.85;;;7.50;99.90;;;;;;5125881;27;20062;-84
2021/12/30 02:17:32;;;;;;;36.30;8.88;;;7.50;99.90;;;;;;5111577;27;20049;-85
2021/12/30 02:20:04;;;;;;;54.28;13.60;;;7.40;99.90;;;;;;5099248;28;20588;-86
2021/12/30 02:22:29;;;;;;;37.72;8.15;;;7.40;99.90;;;;;;5093840;27;20054;-85
2021/12/30 02:24:57;;;;;;;47.75;8.73;;;7.40;99.90;;;;;;5080974;28;20048;-83
2021/12/30 02:27:23;;;;;;;76.85;11.38;;;7.40;99.90;;;;;;5131977;27;20051;-85
2021/12/30 02:29:49;;;;;;;60.50;11.23;;;7.50;99.90;;;;;;5090822;27;20059;-85
2021/12/30 02:32:15;;;;;;;60.95;12.13;;;7.50;99.90;;;;;;5113055;27;20090;-82
2021/12/30 02:34:40;;;;;;;62.25;12.27;;;7.60;99.90;;;;;;5121486;27;20400;-85
2021/12/30 02:37:07;;;;;;;65.95;11.75;;;7.50;99.90;;;;;;5113525;27;20504;-86
2021/12/30 02:39:33;;;;;;;53.30;11.65;;;7.50;99.90;;;;;;5128162;27;20035;-86
2021/12/30 02:42:00;;;;;;;51.03;10.35;;;7.50;99.90;;;;;;5104318;28;20482;-85
2021/12/30 02:44:25;;;;;;;53.83;11.70;;;7.50;99.90;;;;;;5117265;27;20503;-86
2021/12/30 02:46:53;;;;;;;52.55;12.10;;;7.60;99.90;;;;;;5130539;27;20035;-85
2021/12/30 02:49:19;;;;;;;64.70;11.90;;;7.50;99.90;;;;;;5123827;27;20059;-85
2021/12/30 02:51:44;;;;;;;61.53;12.73;;;7.60;99.90;;;;;;5132937;27;20074;-84
2021/12/30 02:54:10;;;;;;;59.25;12.27;;;7.60;99.90;;;;;;5127878;27;20086;-86
2021/12/30 02:56:36;;;;;;;57.17;14.30;;;7.60;99.90;;;;;;5104392;27;20039;-85
2021/12/30 02:59:03;;;;;;;64.18;12.60;;;7.70;99.90;;;;;;5092367;27;20040;-80
2021/12/30 03:01:32;;;;;;;65.10;14.05;;;7.80;99.90;;;;;;5110488;27;20048;-87
2021/12/30 03:04:01;;;;;;;57.42;13.20;;;7.80;99.90;;;;;;5110913;27;20409;-86
2021/12/30 03:06:27;;;;;;;52.35;12.80;;;7.80;99.90;;;;;;5104488;28;20096;-86
2021/12/30 03:08:53;;;;;;;57.15;13.32;;;7.80;99.90;;;;;;5113141;27;20047;-86
2021/12/30 03:11:22;;;;;;;63.83;14.18;;;8.00;99.90;;;;;;5119810;27;20050;-85
2021/12/30 03:13:48;;;;;;;57.00;11.45;;;8.00;99.90;;;;;;5112597;27;20032;-84
2021/12/30 03:16:21;;;;;;;57.30;11.93;;;8.00;99.90;;;;;;5101587;27;20047;-80
2021/12/30 03:18:49;;;;;;;60.00;13.15;;;8.10;99.90;;;;;;5132169;27;20078;-85
2021/12/30 03:21:17;;;;;;;58.70;13.52;;;8.10;99.90;;;;;;5112021;27;20525;-82
2021/12/30 03:23:43;;;;;;;69.40;14.55;;;8.10;99.90;;;;;;5124491;27;20460;-76
2021/12/30 03:26:09;;;;;;;88.32;17.92;;;8.10;99.90;;;;;;5119831;27;20486;-86
2021/12/30 03:28:36;;;;;;;59.42;13.88;;;8.10;99.90;;;;;;5099175;28;20055;-85
2021/12/30 03:31:02;;;;;;;79.15;15.02;;;8.20;99.90;;;;;;5098725;28;20044;-78
2021/12/30 03:33:29;;;;;;;61.95;13.52;;;8.20;99.90;;;;;;5108455;28;20044;-85
2021/12/30 03:35:59;;;;;;;78.65;16.08;;;8.30;99.90;;;;;;5111967;28;20047;-85
2021/12/30 03:38:25;;;;;;;69.70;15.17;;;8.30;99.90;;;;;;5110601;28;20112;-85
2021/12/30 03:40:51;;;;;;;69.38;13.35;;;8.40;99.90;;;;;;5107186;28;20408;-86
2021/12/30 03:43:17;;;;;;;76.22;18.42;;;8.40;99.90;;;;;;5107489;28;20541;-85
2021/12/30 03:45:44;;;;;;;59.20;14.48;;;8.30;99.90;;;;;;5103554;28;20457;-75
2021/12/30 03:48:10;;;;;;;66.35;13.93;;;8.40;99.90;;;;;;5111103;28;20047;-86
2021/12/30 03:50:43;;;;;;;76.45;14.98;;;8.40;99.90;;;;;;5096628;28;20044;-85
2021/12/30 03:53:09;;;;;;;65.72;14.35;;;8.50;99.90;;;;;;5095607;28;20131;-85
2021/12/30 03:55:35;;;;;;;57.78;12.18;;;8.50;99.90;;;;;;5093752;28;20047;-84
2021/12/30 03:58:00;;;;;;;69.18;12.02;;;8.40;99.90;;;;;;5104683;28;20465;-86
2021/12/30 04:00:27;;;;;;;59.00;14.55;;;8.50;99.90;;;;;;5088526;28;20093;-84
2021/12/30 04:02:52;;;;;;;47.78;11.48;;;8.50;99.90;;;;;;5099606;28;20039;-86
2021/12/30 04:05:19;;;;;;;69.43;14.02;;;8.50;99.90;;;;;;5102478;28;20044;-85
2021/12/30 04:07:45;;;;;;;66.88;14.02;;;8.40;99.90;;;;;;5093922;28;20538;-85
2021/12/30 04:10:13;;;;;;;80.47;13.32;;;8.40;99.90;;;;;;5106441;28;20044;-85
2021/12/30 04:12:39;;;;;;;68.47;16.13;;;8.40;99.90;;;;;;5094397;28;20040;-84
2021/12/30 04:15:07;;;;;;;74.32;14.98;;;8.50;99.90;;;;;;5094437;28;20067;-85
2021/12/30 04:17:33;;;;;;;83.70;15.75;;;8.60;99.90;;;;;;5087411;28;20044;-85
2021/12/30 04:19:58;;;;;;;83.72;15.68;;;8.60;99.90;;;;;;5089843;28;20043;-84
2021/12/30 04:22:24;;;;;;;72.03;14.65;;;8.70;99.90;;;;;;5092752;28;20090;-85
2021/12/30 04:24:49;;;;;;;80.68;18.08;;;8.70;99.90;;;;;;5107313;28;20064;-85
2021/12/30 04:27:15;;;;;;;72.10;16.70;;;8.90;99.90;;;;;;5103649;28;20043;-84
2021/12/30 04:29:41;;;;;;;69.78;16.40;;;9.00;99.90;;;;;;5126076;28;20123;-83
2021/12/30 04:32:07;;;;;;;85.45;16.92;;;9.00;99.90;;;;;;5119651;28;20039;-84
2021/12/30 04:34:32;;;;;;;70.82;15.18;;;9.10;99.90;;;;;;5092454;28;20054;-85
2021/12/30 04:36:58;;;;;;;72.10;17.98;;;9.20;99.90;;;;;;5109286;28;20127;-86
2021/12/30 04:39:30;;;;;;;79.65;16.27;;;9.30;99.90;;;;;;5128023;27;20055;-86
2021/12/30 04:42:01;;;;;;;86.00;20.17;;;9.30;99.90;;;;;;5116054;27;20486;-84
2021/12/30 04:44:27;;;;;;;;;;;9.60;99.90;;;;;;5113446;28;20043;-86
2021/12/30 04:46:53;;;;;;;116.57;21.35;;;9.40;99.90;;;;;;5116705;27;19923;-86
2021/12/30 04:49:18;;;;;;;113.93;20.95;;;9.60;99.90;;;;;;5095482;28;20378;-83
2021/12/30 04:51:44;;;;;;;87.53;20.38;;;9.60;99.90;;;;;;5129373;27;20083;-85
2021/12/30 04:54:09;;;;;;;102.95;20.83;;;9.60;99.90;;;;;;5092714;28;20485;-83
2021/12/30 04:56:35;;;;;;;96.22;23.15;;;9.60;99.90;;;;;;5114967;27;20043;-85
2021/12/30 04:59:01;;;;;;;97.97;25.35;;;9.60;99.90;;;;;;5096985;28;20047;-85
2021/12/30 05:01:26;;;;;;;88.88;25.70;;;9.60;99.90;;;;;;5095395;27;20130;-85
2021/12/30 05:03:52;;;;;;;95.05;25.08;;;9.70;99.90;;;;;;5114148;28;20382;-84
2021/12/30 05:06:17;;;;;;;98.68;26.85;;;9.70;99.90;;;;;;5104084;28;20142;-84
2021/12/30 05:08:43;;;;;;;94.88;23.42;;;9.70;99.90;;;;;;5122563;27;20039;-82
2021/12/30 05:11:09;;;;;;;91.80;26.75;;;9.80;99.90;;;;;;5105165;28;20512;-84
2021/12/30 05:13:35;;;;;;;94.80;24.05;;;9.90;99.90;;;;;;5120555;27;20513;-84
2021/12/30 05:16:01;;;;;;;83.28;22.48;;;9.90;99.90;;;;;;5102339;28;20055;-85
2021/12/30 05:18:31;;;;;;;93.50;23.92;;;9.90;99.90;;;;;;5113019;27;20077;-86
2021/12/30 05:21:02;;;;;;;72.88;20.67;;;9.90;99.90;;;;;;5114386;27;20047;-85
2021/12/30 05:23:29;;;;;;;86.18;19.88;;;9.90;99.90;;;;;;5114710;27;20036;-86
2021/12/30 05:25:55;;;;;;;62.67;19.00;;;10.00;99.90;;;;;;5121166;27;20050;-80
2021/12/30 05:28:20;;;;;;;54.63;17.23;;;10.00;99.90;;;;;;5132513;27;20503;-86
2021/12/30 05:30:46;;;;;;;61.65;18.75;;;10.00;99.90;;;;;;5117458;27;20075;-85
2021/12/30 05:33:12;;;;;;;58.30;16.70;;;10.00;99.90;;;;;;5124755;27;20035;-85
2021/12/30 05:35:38;;;;;;;48.83;16.00;;;10.00;99.90;;;;;;5132698;27;20038;-86
2021/12/30 05:38:04;;;;;;;58.55;17.75;;;10.10;99.90;;;;;;5134167;27;20111;-85
2021/12/30 05:40:31;;;;;;;47.97;15.88;;;10.10;99.90;;;;;;5105696;28;20039;-87
2021/12/30 05:42:57;;;;;;;52.03;17.45;;;10.10;99.90;;;;;;5118758;28;20065;-86
2021/12/30 05:45:22;;;;;;;70.25;19.15;;;10.10;99.90;;;;;;5127993;27;20031;-78
2021/12/30 05:47:50;;;;;;;58.72;19.50;;;10.20;99.90;;;;;;5150753;27;20038;-75
2021/12/30 05:50:27;;;;;;;71.10;21.73;;;10.20;99.90;;;;;;5112183;28;20075;-84
2021/12/30 05:52:53;;;;;;;67.57;21.85;;;10.30;99.90;;;;;;5116776;27;20037;-85
2021/12/30 05:55:19;;;;;;;72.32;22.80;;;10.30;99.90;;;;;;5098768;28;20483;-87
2021/12/30 05:57:45;;;;;;;63.40;21.05;;;10.30;99.90;;;;;;5097441;27;20044;-85
2021/12/30 06:00:14;;;;;;;79.30;24.35;;;10.40;99.90;;;;;;5098244;28;20035;-86
2021/12/30 06:02:40;;;;;;;82.90;24.95;;;10.30;99.90;;;;;;5117294;27;20140;-86
2021/12/30 06:05:06;;;;;;;88.25;27.63;;;10.40;99.90;;;;;;5132989;27;20071;-86
2021/12/30 06:07:33;;;;;;;104.03;25.75;;;10.40;99.90;;;;;;5123392;27;20040;-85
2021/12/30 06:09:58;;;;;;;87.90;25.80;;;10.40;99.90;;;;;;5094602;28;20058;-83
2021/12/30 06:12:24;;;;;;;98.05;27.55;;;10.40;99.90;;;;;;5102826;27;20043;-85
2021/12/30 06:14:50;;;;;;;86.32;25.55;;;10.50;99.90;;;;;;5122745;27;20149;-86
2021/12/30 06:17:15;;;;;;;97.80;27.13;;;10.60;99.90;;;;;;5115754;27;20043;-84
2021/12/30 06:19:42;;;;;;;90.78;27.40;;;10.50;99.90;;;;;;5117376;27;20517;-86
2021/12/30 06:22:09;;;;;;;98.85;26.58;;;10.50;99.90;;;;;;5102104;27;20092;-85
2021/12/30 06:24:34;;;;;;;107.93;27.55;;;10.40;99.90;;;;;;5116291;27;20039;-85
2021/12/30 06:27:00;;;;;;;94.43;26.38;;;10.50;99.90;;;;;;5095989;27;20510;-86
2021/12/30 06:29:26;;;;;;;81.38;24.88;;;10.60;99.90;;;;;;5117136;27;20039;-87
2021/12/30 06:31:51;;;;;;;91.57;26.77;;;10.60;99.90;;;;;;5112519;27;20552;-85
2021/12/30 06:34:17;;;;;;;80.60;21.40;;;10.60;99.90;;;;;;5111740;28;20554;-86
2021/12/30 06:36:43;;;;;;;68.50;19.90;;;10.50;99.90;;;;;;5109675;27;20035;-77
2021/12/30 06:39:08;;;;;;;72.65;19.50;;;10.50;99.90;;;;;;5092467;27;20075;-84
2021/12/30 06:41:34;;;;;;;52.00;17.63;;;10.60;99.90;;;;;;5092833;27;20078;-86
2021/12/30 06:44:00;;;;;;;49.05;17.08;;;10.60;99.90;;;;;;5093484;28;20035;-86
2021/12/30 06:46:26;;;;;;;38.05;15.55;;;10.60;99.90;;;;;;5111037;27;20046;-84
2021/12/30 06:48:51;;;;;;;41.67;14.15;;;10.60;99.90;;;;;;5117490;27;20039;-86
2021/12/30 06:51:18;;;;;;;40.67;13.18;;;10.50;99.90;;;;;;5093015;28;20502;-86
2021/12/30 06:53:45;;;;;;;29.65;12.13;;;10.60;99.90;;;;;;5095476;27;20105;-85
2021/12/30 06:56:11;;;;;;;45.70;13.88;;;10.60;99.90;;;;;;5112643;27;20058;-86
2021/12/30 06:58:36;;;;;;;31.20;12.65;;;10.60;99.90;;;;;;5107394;27;20421;-85
2021/12/30 07:01:03;;;;;;;30.77;12.77;;;10.60;99.90;;;;;;5092713;28;20055;-84
2021/12/30 07:03:29;;;;;;;35.30;12.65;;;10.60;99.90;;;;;;5116926;27;20049;-85
2021/12/30 07:05:55;;;;;;;29.23;12.50;;;10.60;99.90;;;;;;5110048;27;20043;-85
2021/12/30 07:08:23;;;;;;;31.83;12.80;;;10.60;99.90;;;;;;5111019;28;20131;-86
2021/12/30 07:10:50;;;;;;;27.48;12.55;;;10.60;99.90;;;;;;5111549;27;20047;-85
2021/12/30 07:13:15;;;;;;;32.63;11.85;;;10.70;99.90;;;;;;5093435;28;20043;-86
2021/12/30 07:15:41;;;;;;;36.55;12.18;;;10.60;99.90;;;;;;5109951;27;20439;-87
2021/12/30 07:18:07;;;;;;;20.02;9.35;;;10.60;99.90;;;;;;5115116;28;20073;-85
2021/12/30 07:20:33;;;;;;;14.85;8.63;;;10.70;99.90;;;;;;5140187;27;20057;-84
2021/12/30 07:22:58;;;;;;;14.27;9.20;;;10.70;99.90;;;;;;5134809;27;20052;-84
2021/12/30 07:25:24;;;;;;;17.65;8.60;;;10.80;99.90;;;;;;5127597;27;20044;-85
2021/12/30 07:27:52;;;;;;;22.13;11.25;;;10.70;99.90;;;;;;5109452;28;20050;-84
2021/12/30 07:30:20;;;;;;;17.10;10.15;;;10.70;99.90;;;;;;5127558;28;20040;-83
2021/12/30 07:32:46;;;;;;;19.95;9.73;;;10.90;99.90;;;;;;5145495;27;20031;-85
2021/12/30 07:35:13;;;;;;;16.73;9.82;;;10.80;99.90;;;;;;5124833;27;20051;-85
2021/12/30 07:37:39;;;;;;;13.93;8.10;;;10.80;99.90;;;;;;5118276;27;20054;-86
2021/12/30 07:40:06;;;;;;;19.67;9.60;;;10.80;99.90;;;;;;5077943;27;20051;-85
2021/12/30 07:42:31;;;;;;;15.27;7.60;;;10.90;99.90;;;;;;5076370;27;20078;-86
2021/12/30 07:44:57;;;;;;;16.85;7.82;;;10.90;99.90;;;;;;5108314;27;20071;-86
2021/12/30 07:47:23;;;;;;;15.85;8.93;;;10.90;99.90;;;;;;5116904;27;20047;-87
2021/12/30 07:49:48;;;;;;;13.05;7.80;;;10.90;99.90;;;;;;5076257;27;20096;-86
2021/12/30 07:52:15;;;;;;;14.02;8.32;;;10.90;99.90;;;;;;5091540;28;20042;-83
2021/12/30 07:54:43;;;;;;;12.77;9.10;;;11.00;99.90;;;;;;5120077;27;20126;-86
2021/12/30 07:57:12;;;;;;;16.73;9.98;;;11.00;99.90;;;;;;5096814;27;20043;-88
2021/12/30 07:59:38;;;;;;;12.38;7.07;;;11.00;99.90;;;;;;5121001;27;20044;-86
2021/12/30 08:02:04;;;;;;;12.77;7.15;;;11.00;99.90;;;;;;5111431;27;20050;-87
2021/12/30 08:04:29;;;;;;;15.02;7.55;;;11.00;99.90;;;;;;5092942;28;20043;-86
2021/12/30 08:06:56;;;;;;;15.70;7.68;;;11.00;99.90;;;;;;5091358;28;20565;-86
2021/12/30 08:09:21;;;;;;;14.57;7.97;;;11.00;99.90;;;;;;5128409;27;20088;-85
2021/12/30 08:11:47;;;;;;;15.40;8.05;;;11.00;99.90;;;;;;5116479;27;20040;-85
2021/12/30 08:14:12;;;;;;;13.77;8.70;;;11.00;99.90;;;;;;5110322;28;20060;-74
2021/12/30 08:16:38;;;;;;;21.60;11.75;;;11.00;99.90;;;;;;5109407;27;20121;-83
2021/12/30 08:19:04;;;;;;;25.60;10.68;;;11.00;99.90;;;;;;5111018;28;20036;-85
2021/12/30 08:21:29;;;;;;;18.10;11.98;;;11.00;99.90;;;;;;5095663;28;20040;-87
2021/12/30 08:23:55;;;;;;;22.55;12.50;;;11.00;99.90;;;;;;5125855;27;20040;-86
2021/12/30 08:26:21;;;;;;;26.20;12.57;;;11.10;99.90;;;;;;5106003;28;20111;-87
2021/12/30 08:28:47;;;;;;;22.67;12.23;;;11.00;99.90;;;;;;5112322;28;20038;-86
2021/12/30 08:31:13;;;;;;;17.35;10.40;;;11.00;99.90;;;;;;5122916;28;20058;-75
2021/12/30 08:33:39;;;;;;;24.48;10.30;;;11.00;99.90;;;;;;5077951;28;20074;-86
2021/12/30 08:36:06;;;;;;;20.15;8.95;;;11.10;99.90;;;;;;5120445;28;20046;-85
2021/12/30 08:38:31;;;;;;;20.63;9.20;;;11.00;99.90;;;;;;5114450;28;20077;-85
2021/12/30 08:40:58;;;;;;;26.20;10.52;;;11.10;99.90;;;;;;5109054;28;20023;-77
2021/12/30 08:43:24;;;;;;;18.77;8.48;;;11.10;99.90;;;;;;5134849;28;20039;-84
2021/12/30 08:45:50;;;;;;;17.77;8.93;;;11.00;99.90;;;;;;5121764;28;20085;-82
2021/12/30 08:48:16;;;;;;;29.67;10.60;;;11.00;99.90;;;;;;5100919;28;20040;-85
2021/12/30 08:50:43;;;;;;;25.88;8.82;;;11.00;99.90;;;;;;5094734;28;20543;-85
2021/12/30 08:53:09;;;;;;;34.00;11.60;;;11.00;99.90;;;;;;5112637;28;20035;-83
2021/12/30 08:55:36;;;;;;;22.98;8.27;;;10.90;99.90;;;;;;5092496;28;20035;-84
2021/12/30 08:58:02;;;;;;;27.17;8.93;;;10.90;99.90;;;;;;5119730;28;20132;-78
2021/12/30 09:00:33;;;;;;;23.13;8.30;;;11.00;99.90;;;;;;5115795;28;20039;-85
2021/12/30 09:03:00;;;;;;;30.20;8.68;;;10.90;99.90;;;;;;5097472;28;20043;-83
2021/12/30 09:05:27;;;;;;;25.63;7.95;;;11.00;99.90;;;;;;5119498;28;20036;-83
2021/12/30 09:07:53;;;;;;;28.52;9.80;;;11.00;99.90;;;;;;5092835;28;20047;-85
2021/12/30 09:10:20;;;;;;;18.50;6.95;;;11.00;99.90;;;;;;5124525;28;20089;-85
2021/12/30 09:12:46;;;;;;;25.33;7.60;;;11.00;99.90;;;;;;5110471;28;20046;-85
2021/12/30 09:15:17;;;;;;;19.27;6.80;;;11.00;99.90;;;;;;5109626;28;20050;-73
2021/12/30 09:17:46;;;;;;;20.98;7.90;;;11.10;99.90;;;;;;5110905;28;20073;-82
2021/12/30 09:20:12;;;;;;;25.13;7.63;;;11.00;99.90;;;;;;5123178;28;20040;-84
2021/12/30 09:22:38;;;;;;;24.58;8.15;;;11.10;99.90;;;;;;5118342;27;20046;-84
2021/12/30 09:25:07;;;;;;;24.50;8.10;;;11.10;99.90;;;;;;5124558;27;20085;-81
2021/12/30 09:27:37;;;;;;;28.02;7.65;;;11.10;99.90;;;;;;5113852;27;20051;-81
2021/12/30 09:30:08;;;;;;;29.27;9.52;;;11.10;99.90;;;;;;5101516;27;20051;-81
2021/12/30 09:32:34;;;;;;;31.25;9.27;;;11.20;99.90;;;;;;5114760;27;20438;-82
2021/12/30 09:35:00;;;;;;;27.45;8.45;;;11.20;99.90;;;;;;5117576;27;20059;-83
2021/12/30 09:37:25;;;;;;;26.73;7.72;;;11.20;99.90;;;;;;5114489;27;20060;-81
2021/12/30 09:39:51;;;;;;;24.98;6.63;;;11.20;99.90;;;;;;5129279;27;20035;-83
2021/12/30 09:42:19;;;;;;;32.75;9.15;;;11.20;99.90;;;;;;5119016;27;20550;-85
2021/12/30 09:44:45;;;;;;;31.55;8.38;;;11.20;99.90;;;;;;5110512;27;20369;-82
2021/12/30 09:47:11;;;;;;;23.50;7.07;;;11.20;99.90;;;;;;5116407;27;20393;-83
2021/12/30 09:49:36;;;;;;;26.10;7.25;;;11.20;99.90;;;;;;5116852;28;20130;-81
2021/12/30 09:52:03;;;;;;;26.90;6.75;;;11.20;99.90;;;;;;5095245;28;20051;-84
2021/12/30 09:54:29;;;;;;;34.75;7.68;;;11.20;99.90;;;;;;5113585;27;20040;-81
2021/12/30 09:56:54;;;;;;;29.15;8.30;;;11.30;99.90;;;;;;5114580;27;20203;-82
2021/12/30 09:59:23;;;;;;;30.40;7.78;;;11.20;99.90;;;;;;5125273;27;20116;-82
2021/12/30 10:01:49;;;;;;;20.15;5.65;;;11.20;99.90;;;;;;5113350;27;20608;-82
2021/12/30 10:04:16;;;;;;;25.90;6.45;;;11.20;99.90;;;;;;5105435;27;20046;-79
2021/12/30 10:06:47;;;;;;;22.92;7.07;;;11.20;99.90;;;;;;5096448;28;20035;-82
2021/12/30 10:09:15;;;;;;;25.70;7.55;;;11.20;99.90;;;;;;5125558;27;20084;-75
2021/12/30 10:11:53;;;;;;;28.17;7.32;;;11.20;99.90;;;;;;5117550;27;20055;-81
2021/12/30 10:14:30;;;;;;;29.25;6.72;;;11.20;99.90;;;;;;5112806;27;20052;-82
2021/12/30 10:17:24;;;;;;;41.10;8.30;;;11.20;99.90;;;;;;5095895;27;20039;-82
2021/12/30 10:19:51;;;;;;;24.65;6.07;;;11.20;99.90;;;;;;5094640;28;20282;-82
2021/12/30 10:22:21;;;;;;;26.98;7.00;;;11.20;99.90;;;;;;5115910;27;20078;-84
2021/12/30 10:24:48;;;;;;;28.70;7.55;;;11.20;99.90;;;;;;5112172;27;20039;-84
2021/12/30 10:27:26;;;;;;;30.67;6.43;;;11.20;99.90;;;;;;5100500;27;20174;-78
2021/12/30 10:29:52;;;;;;;33.58;7.03;;;11.20;99.90;;;;;;5122891;27;20084;-83
2021/12/30 10:32:26;;;;;;;24.42;7.82;;;11.30;99.90;;;;;;5103383;28;20397;-81
2021/12/30 10:35:24;;;;;;;36.95;9.07;;;11.30;99.90;;;;;;5117104;27;20096;-80
2021/12/30 10:38:04;;;;;;;25.38;6.97;;;11.30;99.90;;;;;;5073394;27;20382;-80
2021/12/30 10:40:31;;;;;;;55.20;8.73;;;11.40;99.90;;;;;;5106057;27;20043;-80
2021/12/30 10:43:31;;;;;;;24.55;5.05;;;11.30;99.90;;;;;;5129380;27;20317;-78
2021/12/30 10:46:20;;;;;;;34.50;8.73;;;11.40;99.90;;;;;;5110995;27;20083;-78
2021/12/30 10:48:48;;;;;;;37.97;10.80;;;11.30;99.90;;;;;;5110943;27;20066;-80
2021/12/30 10:51:25;;;;;;;35.83;10.80;;;11.40;99.90;;;;;;5109366;28;20388;-73
2021/12/30 10:53:53;;;;;;;30.83;9.30;;;11.40;99.90;;;;;;5092930;28;20039;-79
2021/12/30 10:56:23;;;;;;;42.00;7.72;;;11.40;99.90;;;;;;5092838;28;20425;-79
2021/12/30 10:58:50;;;;;;;43.78;6.97;;;11.50;99.90;;;;;;5093804;28;20039;-81
2021/12/30 11:01:21;;;;;;;37.38;8.50;;;11.50;99.90;;;;;;5096033;28;20043;-83
2021/12/30 11:03:59;;;;;;;50.65;11.60;;;11.50;99.90;;;;;;5105331;27;20122;-82
2021/12/30 11:06:25;;;;;;;37.47;9.07;;;11.40;99.90;;;;;;5109911;27;20062;-82
2021/12/30 11:09:13;;;;;;;45.55;10.05;;;11.50;99.90;;;;;;5111599;28;20050;-81
2021/12/30 11:12:04;;;;;;;40.75;9.75;;;11.40;99.90;;;;;;5096756;27;20043;-79
2021/12/30 11:14:34;;;;;;;47.03;8.63;;;11.40;99.90;;;;;;5090994;28;20055;-79
2021/12/30 11:17:12;;;;;;;50.65;10.13;;;11.40;99.90;;;;;;5109953;27;20047;-79
2021/12/30 11:19:50;;;;;;;41.58;10.10;;;11.40;99.90;;;;;;5109940;28;20110;-79
2021/12/30 11:22:19;;;;;;;38.30;7.88;;;11.40;99.90;;;;;;5113525;27;20040;-79
2021/12/30 11:24:46;;;;;;;35.85;7.18;;;11.40;99.90;;;;;;5124911;27;20096;-78
2021/12/30 11:27:14;;;;;;;45.05;9.27;;;11.40;99.90;;;;;;5131550;27;20058;-78
2021/12/30 11:29:45;;;;;;;41.17;10.27;;;11.40;99.90;;;;;;5120437;27;20046;-77
2021/12/30 11:32:18;;;;;;;39.60;9.20;;;11.40;99.90;;;;;;5122391;27;20049;-76
2021/12/30 11:34:48;;;;;;;38.20;10.50;;;11.40;99.90;;;;;;5112189;27;20118;-77
2021/12/30 11:37:15;;;;;;;43.15;9.50;;;11.40;99.90;;;;;;5118108;27;20051;-76
2021/12/30 11:39:44;;;;;;;45.88;9.43;;;11.50;99.90;;;;;;5120913;27;20031;-79
2021/12/30 11:42:21;;;;;;;39.42;9.57;;;11.50;99.90;;;;;;5122672;27;20567;-79
2021/12/30 11:44:51;;;;;;;38.58;8.40;;;11.50;99.90;;;;;;5112485;27;20043;-79
2021/12/30 11:47:32;;;;;;;36.83;10.05;;;11.50;99.90;;;;;;5120585;27;20096;-79
2021/12/30 11:50:10;;;;;;;52.95;11.80;;;11.50;99.90;;;;;;5109606;27;20103;-79
2021/12/30 11:52:51;;;;;;;34.58;10.35;;;11.60;99.90;;;;;;5117278;27;20114;-79
2021/12/30 11:55:39;;;;;;;42.80;8.23;;;11.60;99.90;;;;;;5129815;27;20119;-79
2021/12/30 11:58:31;;;;;;;44.92;9.20;;;11.60;99.90;;;;;;5127144;27;20043;-78
2021/12/30 12:00:57;;;;;;;36.47;8.63;;;11.60;99.90;;;;;;5115514;27;20515;-71
2021/12/30 12:03:27;;;;;;;37.72;10.45;;;11.60;99.90;;;;;;5118145;27;20043;-83
2021/12/30 12:05:53;;;;;;;42.07;12.77;;;11.60;99.90;;;;;;5125081;27;20054;-83
2021/12/30 12:08:19;;;;;;;36.13;7.13;;;11.70;99.90;;;;;;5124675;27;20050;-88
2021/12/30 12:11:12;;;;;;;52.97;10.13;;;11.70;99.90;;;;;;5130244;27;20404;-80
2021/12/30 12:13:39;;;;;;;36.97;8.43;;;11.70;99.90;;;;;;5118644;28;20082;-77
2021/12/30 12:16:05;;;;;;;39.83;10.20;;;11.80;99.90;;;;;;5131522;27;20038;-76
2021/12/30 12:18:32;;;;;;;47.92;10.43;;;11.80;99.90;;;;;;5093833;28;20047;-83
2021/12/30 12:21:02;;;;;;;41.25;9.43;;;11.80;99.90;;;;;;5105039;28;20517;-83
2021/12/30 12:23:35;;;;;;;;;;;11.90;99.90;;;;;;5111636;27;20057;-80
2021/12/30 12:26:13;;;;;;;37.35;8.57;;;11.90;99.90;;;;;;5129094;27;19995;-76
2021/12/30 12:28:40;;;;;;;38.83;9.75;;;11.90;99.90;;;;;;5119466;28;20055;-77
2021/12/30 12:31:07;;;;;;;36.42;9.98;;;12.00;99.90;;;;;;5111816;28;20175;-75
2021/12/30 12:33:35;;;;;;;31.65;8.27;;;11.90;99.90;;;;;;5109313;28;20039;-75
2021/12/30 12:36:33;;;;;;;30.40;7.82;;;11.90;99.90;;;;;;5108168;28;20082;-76
2021/12/30 12:38:59;;;;;;;35.92;8.07;;;11.90;99.90;;;;;;5091095;28;20043;-78
2021/12/30 12:41:31;;;;;;;46.85;9.35;;;11.90;99.90;;;;;;5127505;28;20039;-76